createdAt,value
2019-03-06T00:01:15.695Z,2.57
2019-03-06T00:03:45.501Z,2.57
2019-03-06T00:06:17.064Z,2.47
2019-03-06T00:08:46.672Z,2.47
2019-03-06T00:11:16.670Z,3.03
2019-03-06T00:13:46.441Z,2.77
2019-03-06T00:16:16.172Z,3.17
2019-03-06T00:18:45.907Z,2.50
2019-03-06T00:21:15.669Z,2.87
2019-03-06T00:23:45.540Z,3.13
2019-03-06T00:26:15.341Z,2.87
2019-03-06T00:28:45.173Z,2.63
2019-03-06T00:31:14.911Z,3.10
2019-03-06T00:33:44.803Z,2.87
2019-03-06T00:36:16.268Z,2.87
2019-03-06T00:38:46.100Z,3.20
2019-03-06T00:41:17.436Z,3.40
2019-03-06T00:43:47.169Z,3.37
2019-03-06T00:46:17.085Z,3.47
2019-03-06T00:48:46.748Z,3.00
2019-03-06T00:51:16.573Z,3.20
2019-03-06T00:53:46.303Z,3.23
2019-03-06T00:56:16.435Z,3.80
2019-03-06T00:58:46.119Z,3.13
2019-03-06T01:01:16.554Z,3.63
2019-03-06T01:03:46.413Z,3.73
2019-03-06T01:06:16.263Z,3.93
2019-03-06T01:08:45.960Z,3.50
2019-03-06T01:11:15.766Z,4.27
2019-03-06T01:13:45.505Z,4.57
2019-03-06T01:16:15.288Z,3.90
2019-03-06T01:18:45.100Z,4.00
2019-03-06T01:21:15.045Z,4.20
2019-03-06T01:23:44.789Z,4.10
2019-03-06T01:26:14.506Z,4.13
2019-03-06T01:28:44.298Z,4.47
2019-03-06T01:31:14.170Z,4.17
2019-03-06T01:33:45.512Z,4.67
2019-03-06T01:36:19.876Z,4.40
2019-03-06T01:39:03.821Z,4.73
2019-03-06T01:41:50.229Z,4.93
2019-03-06T01:44:27.507Z,4.73
2019-03-06T01:46:57.240Z,4.80
2019-03-06T01:49:26.985Z,5.17
2019-03-06T01:51:56.683Z,5.73
2019-03-06T01:54:26.572Z,5.53
2019-03-06T01:56:56.278Z,5.63
2019-03-06T01:59:26.092Z,6.50
2019-03-06T02:01:55.874Z,6.20
2019-03-06T02:04:25.753Z,6.03
2019-03-06T02:06:55.558Z,5.43
2019-03-06T02:09:28.261Z,6.33
2019-03-06T02:11:58.195Z,6.67
2019-03-06T02:14:27.997Z,6.33
2019-03-06T02:16:57.760Z,6.40
2019-03-06T02:19:27.473Z,6.73
2019-03-06T02:21:57.415Z,6.90
2019-03-06T02:24:27.129Z,6.90
2019-03-06T02:26:56.954Z,7.27
2019-03-06T02:29:26.826Z,7.00
2019-03-06T02:31:56.515Z,7.67
2019-03-06T02:34:26.203Z,7.50
2019-03-06T02:36:55.930Z,6.97
2019-03-06T02:39:25.660Z,8.07
2019-03-06T02:41:55.372Z,7.23
2019-03-06T02:44:25.037Z,7.30
2019-03-06T02:46:54.757Z,7.70
2019-03-06T02:49:24.450Z,7.93
2019-03-06T02:51:54.175Z,7.27
2019-03-06T02:54:23.842Z,7.97
2019-03-06T02:56:53.619Z,7.47
2019-03-06T02:59:27.699Z,7.73
2019-03-06T03:02:01.742Z,7.60
2019-03-06T03:04:35.645Z,8.13
2019-03-06T03:07:07.072Z,8.07
2019-03-06T03:09:37.024Z,8.23
2019-03-06T03:12:06.669Z,7.83
2019-03-06T03:14:36.445Z,8.03
2019-03-06T03:17:06.487Z,8.27
2019-03-06T03:19:36.298Z,8.27
2019-03-06T03:22:06.485Z,8.43
2019-03-06T03:24:36.153Z,9.07
2019-03-06T03:27:06.051Z,7.83
2019-03-06T03:29:35.689Z,8.13
2019-03-06T03:32:05.695Z,8.10
2019-03-06T03:34:35.630Z,8.03
2019-03-06T03:37:05.471Z,7.83
2019-03-06T03:39:35.208Z,8.80
2019-03-06T03:42:05.465Z,8.60
2019-03-06T03:44:35.101Z,8.97
2019-03-06T03:47:05.124Z,8.63
2019-03-06T03:49:34.874Z,8.80
2019-03-06T03:52:04.681Z,9.00
2019-03-06T03:54:34.323Z,8.90
2019-03-06T03:57:04.149Z,9.43
2019-03-06T03:59:33.980Z,8.50
2019-03-06T04:02:03.693Z,9.37
2019-03-06T04:04:33.417Z,9.50
2019-03-06T04:07:03.288Z,8.70
2019-03-06T04:09:33.267Z,8.50
2019-03-06T04:12:02.928Z,8.77
2019-03-06T04:14:32.593Z,8.57
2019-03-06T04:17:02.595Z,8.33
2019-03-06T04:19:32.327Z,9.30
2019-03-06T04:22:02.053Z,8.27
2019-03-06T04:24:31.914Z,8.93
2019-03-06T04:27:01.939Z,8.67
2019-03-06T04:29:31.808Z,9.43
2019-03-06T04:32:01.493Z,8.80
2019-03-06T04:34:31.187Z,8.70
2019-03-06T04:37:01.040Z,8.50
2019-03-06T04:39:30.736Z,9.30
2019-03-06T04:42:00.522Z,8.77
2019-03-06T04:44:30.260Z,8.87
2019-03-06T04:46:59.958Z,8.67
2019-03-06T04:49:30.067Z,9.30
2019-03-06T04:51:59.850Z,9.03
2019-03-06T04:54:29.627Z,9.47
2019-03-06T04:57:03.926Z,9.73
2019-03-06T04:59:34.608Z,8.57
2019-03-06T05:02:04.307Z,9.07
2019-03-06T05:04:34.171Z,10.13
2019-03-06T05:07:04.071Z,9.63
2019-03-06T05:09:33.915Z,8.93
2019-03-06T05:12:03.882Z,9.37
2019-03-06T05:14:33.579Z,8.83
2019-03-06T05:17:17.676Z,9.07
2019-03-06T05:19:47.454Z,9.30
2019-03-06T05:22:17.107Z,9.20
2019-03-06T05:24:46.802Z,9.20
2019-03-06T05:27:16.634Z,9.67
2019-03-06T05:29:46.428Z,9.33
2019-03-06T05:32:37.084Z,9.17
2019-03-06T05:35:26.127Z,8.50
2019-03-06T05:38:09.581Z,8.90
2019-03-06T05:40:39.350Z,8.33
2019-03-06T05:43:09.170Z,8.13
2019-03-06T05:45:38.908Z,8.33
2019-03-06T05:48:08.664Z,6.60
2019-03-06T05:50:38.374Z,7.60
2019-03-06T05:53:08.117Z,7.90
2019-03-06T05:55:37.870Z,6.97
2019-03-06T05:58:07.901Z,6.83
2019-03-06T06:00:37.614Z,7.17
2019-03-06T06:03:07.398Z,6.87
2019-03-06T06:05:37.069Z,7.10
2019-03-06T06:08:06.864Z,6.63
2019-03-06T06:10:36.973Z,6.33
2019-03-06T06:13:06.867Z,5.97
2019-03-06T06:15:36.839Z,6.03
2019-03-06T06:18:06.531Z,5.93
2019-03-06T06:20:36.205Z,6.30
2019-03-06T06:23:10.492Z,6.50
2019-03-06T06:25:40.286Z,6.10
2019-03-06T06:28:10.294Z,5.40
2019-03-06T06:30:40.061Z,5.63
2019-03-06T06:33:11.462Z,5.33
2019-03-06T06:35:41.278Z,5.03
2019-03-06T06:38:11.285Z,5.30
2019-03-06T06:40:41.169Z,5.63
2019-03-06T06:43:10.822Z,6.00
2019-03-06T06:45:40.672Z,5.53
2019-03-06T06:48:16.263Z,6.30
2019-03-06T06:51:01.552Z,5.80
2019-03-06T06:53:59.865Z,5.70
2019-03-06T06:57:07.615Z,6.57
2019-03-06T06:59:56.814Z,5.63
2019-03-06T07:03:15.677Z,5.50
2019-03-06T07:05:47.025Z,6.20
2019-03-06T07:08:20.947Z,6.60
2019-03-06T07:11:01.024Z,6.63
2019-03-06T07:13:47.370Z,6.30
2019-03-06T07:16:34.611Z,7.13
2019-03-06T07:19:12.335Z,6.13
2019-03-06T07:21:49.376Z,7.07
2019-03-06T07:24:20.923Z,6.60
2019-03-06T07:27:02.168Z,5.80
2019-03-06T07:29:31.648Z,6.07
2019-03-06T07:32:11.601Z,6.50
2019-03-06T07:35:00.597Z,6.30
2019-03-06T07:37:40.655Z,7.00
2019-03-06T07:40:12.457Z,6.33
2019-03-06T07:42:46.375Z,6.77
2019-03-06T07:45:51.873Z,5.80
2019-03-06T07:48:25.893Z,5.73
2019-03-06T07:50:59.884Z,5.77
2019-03-06T07:54:08.122Z,6.03
2019-03-06T07:56:43.565Z,5.83
2019-03-06T07:59:13.369Z,5.83
2019-03-06T08:02:12.270Z,5.70
2019-03-06T08:04:50.104Z,5.40
2019-03-06T08:07:20.083Z,5.50
2019-03-06T08:09:50.548Z,5.83
2019-03-06T08:12:24.765Z,5.20
2019-03-06T08:15:12.259Z,4.37
2019-03-06T08:17:58.895Z,4.20
2019-03-06T08:20:42.246Z,5.23
2019-03-06T08:23:13.579Z,4.47
2019-03-06T08:25:46.553Z,4.40
2019-03-06T08:28:16.497Z,5.07
2019-03-06T08:30:57.098Z,4.10
2019-03-06T08:33:26.945Z,3.93
2019-03-06T08:35:56.774Z,4.00
2019-03-06T08:38:26.607Z,4.23
2019-03-06T08:41:03.825Z,3.50
2019-03-06T08:43:27.783Z,3.80
2019-03-06T08:46:09.618Z,3.33
2019-03-06T08:48:57.351Z,3.70
2019-03-06T08:51:35.138Z,3.40
2019-03-06T08:54:15.339Z,3.20
2019-03-06T08:56:46.710Z,3.23
2019-03-06T08:59:18.750Z,3.53
2019-03-06T09:02:00.516Z,3.03
2019-03-06T09:04:31.013Z,3.57
2019-03-06T09:07:18.417Z,3.20
2019-03-06T09:09:56.508Z,3.60
2019-03-06T09:12:29.062Z,2.70
2019-03-06T09:15:09.125Z,4.17
2019-03-06T09:17:58.920Z,9.07
2019-03-06T09:20:41.116Z,3.30
2019-03-06T09:23:23.218Z,5.63
2019-03-06T09:25:51.609Z,2.80
2019-03-06T09:28:36.605Z,3.50
2019-03-06T09:31:14.554Z,2.80
2019-03-06T09:34:01.985Z,3.03
2019-03-06T09:36:33.636Z,3.33
2019-03-06T09:39:19.836Z,2.73
2019-03-06T09:42:07.218Z,2.47
2019-03-06T09:44:50.725Z,2.10
2019-03-06T09:47:31.056Z,2.50
2019-03-06T09:50:02.727Z,2.43
2019-03-06T09:52:50.295Z,2.30
2019-03-06T09:55:25.775Z,2.23
2019-03-06T09:57:57.386Z,2.03
2019-03-06T10:00:32.796Z,1.77
2019-03-06T10:03:20.456Z,2.20
2019-03-06T10:05:54.639Z,2.83
2019-03-06T10:08:44.317Z,1.93
2019-03-06T10:11:27.277Z,2.23
2019-03-06T10:13:58.644Z,1.73
2019-03-06T10:16:39.235Z,1.83
2019-03-06T10:19:11.669Z,1.60
2019-03-06T10:21:41.449Z,1.73
2019-03-06T10:24:11.567Z,1.97
2019-03-06T10:26:41.464Z,1.80
2019-03-06T10:29:11.373Z,2.10
2019-03-06T10:31:41.257Z,1.83
2019-03-06T10:34:11.204Z,1.73
2019-03-06T10:36:40.972Z,1.70
2019-03-06T10:39:15.995Z,2.20
2019-03-06T10:41:45.888Z,2.03
2019-03-06T10:44:15.874Z,1.80
2019-03-06T10:46:45.805Z,1.80
2019-03-06T10:49:15.768Z,1.80
2019-03-06T10:51:45.664Z,1.70
2019-03-06T10:54:15.537Z,2.00
2019-03-06T10:56:45.299Z,2.33
2019-03-06T10:59:15.175Z,1.73
2019-03-06T11:01:45.175Z,2.17
2019-03-06T11:04:31.750Z,2.60
2019-03-06T11:07:01.734Z,2.23
2019-03-06T11:09:31.893Z,2.60
2019-03-06T11:12:01.791Z,2.20
2019-03-06T11:14:31.990Z,1.80
2019-03-06T11:17:01.800Z,2.20
2019-03-06T11:19:31.959Z,2.20
2019-03-06T11:22:01.875Z,1.73
2019-03-06T11:24:32.161Z,2.00
2019-03-06T11:27:02.346Z,1.83
2019-03-06T11:29:32.332Z,2.00
2019-03-06T11:32:02.432Z,1.90
2019-03-06T11:34:32.346Z,2.13
2019-03-06T11:37:02.517Z,1.80
2019-03-06T11:39:32.452Z,1.90
2019-03-06T11:42:02.516Z,1.97
2019-03-06T11:44:32.321Z,1.87
2019-03-06T11:47:02.249Z,1.90
2019-03-06T11:49:32.010Z,1.70
2019-03-06T11:52:03.581Z,1.80
2019-03-06T11:54:33.622Z,1.93
2019-03-06T11:57:03.447Z,1.70
2019-03-06T11:59:33.331Z,1.70
2019-03-06T12:02:03.280Z,1.90
2019-03-06T12:04:33.523Z,1.80
2019-03-06T12:07:03.459Z,1.50
2019-03-06T12:09:33.735Z,2.00
2019-03-06T12:12:03.842Z,1.90
2019-03-06T12:14:34.033Z,1.87
2019-03-06T12:17:03.998Z,1.50
2019-03-06T12:19:34.338Z,1.60
2019-03-06T12:22:04.488Z,1.70
2019-03-06T12:24:34.265Z,1.83
2019-03-06T12:27:04.250Z,1.87
2019-03-06T12:29:34.053Z,1.70
2019-03-06T12:32:05.370Z,1.60
2019-03-06T12:34:35.186Z,1.67
2019-03-06T12:37:05.222Z,1.60
2019-03-06T12:39:34.981Z,1.63
2019-03-06T12:42:13.766Z,1.83
2019-03-06T12:44:36.482Z,1.83
2019-03-06T12:47:06.378Z,1.40
2019-03-06T12:49:36.204Z,1.50
2019-03-06T12:52:06.418Z,1.93
2019-03-06T12:54:36.211Z,1.73
2019-03-06T12:57:06.867Z,1.80
2019-03-06T12:59:36.763Z,1.50
2019-03-06T13:02:06.867Z,1.50
2019-03-06T13:04:36.774Z,1.30
2019-03-06T13:07:06.550Z,2.23
2019-03-06T13:09:37.617Z,2.03
2019-03-06T13:12:07.740Z,2.03
2019-03-06T13:14:37.649Z,2.17
2019-03-06T13:17:07.942Z,1.83
2019-03-06T13:19:37.896Z,2.03
2019-03-06T13:22:11.165Z,1.90
2019-03-06T13:24:39.323Z,1.97
2019-03-06T13:27:09.302Z,1.60
2019-03-06T13:29:39.070Z,1.60
2019-03-06T13:32:11.710Z,1.70
2019-03-06T13:34:40.305Z,2.33
2019-03-06T13:37:10.053Z,1.90
2019-03-06T13:39:40.207Z,1.87
2019-03-06T13:42:09.955Z,1.60
2019-03-06T13:44:39.785Z,1.90
2019-03-06T13:47:09.575Z,1.57
2019-03-06T13:49:39.250Z,1.50
2019-03-06T13:52:09.074Z,1.80
2019-03-06T13:54:38.736Z,1.93
2019-03-06T13:57:10.081Z,1.57
2019-03-06T13:59:39.913Z,1.57
2019-03-06T14:02:10.169Z,1.63
2019-03-06T14:04:39.947Z,1.80
2019-03-06T14:07:09.848Z,1.87
2019-03-06T14:09:39.725Z,1.77
2019-03-06T14:12:09.495Z,1.70
2019-03-06T14:14:39.200Z,2.00
2019-03-06T14:17:08.939Z,1.80
2019-03-06T14:19:38.771Z,1.50
2019-03-06T14:22:08.617Z,1.70
2019-03-06T14:24:38.365Z,1.83
2019-03-06T14:27:09.499Z,1.70
2019-03-06T14:29:39.379Z,1.80
2019-03-06T14:32:14.678Z,1.90
2019-03-06T14:34:40.676Z,1.80
2019-03-06T14:37:10.498Z,1.83
2019-03-06T14:39:40.311Z,2.27
2019-03-06T14:42:10.231Z,1.73
2019-03-06T14:44:40.484Z,2.07
2019-03-06T14:47:11.146Z,1.80
2019-03-06T14:49:40.948Z,1.90
2019-03-06T14:52:10.838Z,2.17
2019-03-06T14:54:40.813Z,2.00
2019-03-06T14:57:10.753Z,2.07
2019-03-06T14:59:40.644Z,2.20
2019-03-06T15:02:10.737Z,2.40
2019-03-06T15:04:40.513Z,1.97
2019-03-06T15:07:10.328Z,2.10
2019-03-06T15:09:40.162Z,1.77
2019-03-06T15:12:09.863Z,2.07
2019-03-06T15:14:39.617Z,4.03
2019-03-06T15:17:09.411Z,2.00
2019-03-06T15:19:39.381Z,2.83
2019-03-06T15:22:09.182Z,2.10
2019-03-06T15:24:41.646Z,1.70
2019-03-06T15:27:10.463Z,1.97
2019-03-06T15:29:40.791Z,2.10
2019-03-06T15:32:10.600Z,2.17
2019-03-06T15:34:40.402Z,2.00
2019-03-06T15:37:10.273Z,4.00
2019-03-06T15:39:48.257Z,2.30
2019-03-06T15:42:12.208Z,2.53
2019-03-06T15:44:42.057Z,2.03
2019-03-06T15:47:11.815Z,2.13
2019-03-06T15:49:41.932Z,2.00
2019-03-06T15:52:12.202Z,2.03
2019-03-06T15:54:42.100Z,2.00
2019-03-06T15:57:12.193Z,2.20
2019-03-06T15:59:42.050Z,2.07
2019-03-06T16:02:11.967Z,2.20
2019-03-06T16:04:42.120Z,2.37
2019-03-06T16:07:11.871Z,2.43
2019-03-06T16:09:41.867Z,2.40
2019-03-06T16:12:12.444Z,2.13
2019-03-06T16:14:42.790Z,2.33
2019-03-06T16:17:12.708Z,2.30
2019-03-06T16:19:42.437Z,2.20
2019-03-06T16:22:13.215Z,2.50
2019-03-06T16:24:43.004Z,1.73
2019-03-06T16:27:12.913Z,2.70
2019-03-06T16:29:42.649Z,3.20
2019-03-06T16:32:12.565Z,2.37
2019-03-06T16:34:42.282Z,2.10
2019-03-06T16:37:12.155Z,2.60
2019-03-06T16:39:42.353Z,3.00
2019-03-06T16:42:12.209Z,2.90
2019-03-06T16:44:42.092Z,3.10
2019-03-06T16:47:12.958Z,2.63
2019-03-06T16:49:42.939Z,4.50
2019-03-06T16:52:13.401Z,4.40
2019-03-06T16:54:43.284Z,5.10
2019-03-06T16:57:13.131Z,5.13
2019-03-06T16:59:43.063Z,7.20
2019-03-06T17:02:13.174Z,4.00
2019-03-06T17:04:43.146Z,4.50
2019-03-06T17:07:13.208Z,3.27
2019-03-06T17:09:43.220Z,3.00
2019-03-06T17:12:13.387Z,3.60
2019-03-06T17:14:44.507Z,3.93
2019-03-06T17:17:14.355Z,4.17
2019-03-06T17:19:44.435Z,3.10
2019-03-06T17:22:14.565Z,3.73
2019-03-06T17:24:44.283Z,3.97
2019-03-06T17:27:14.228Z,3.07
2019-03-06T17:29:44.428Z,3.43
2019-03-06T17:32:14.304Z,3.20
2019-03-06T17:34:43.987Z,2.60
2019-03-06T17:37:13.837Z,3.13
2019-03-06T17:39:43.627Z,2.70
2019-03-06T17:42:13.633Z,2.47
2019-03-06T17:44:43.492Z,2.57
2019-03-06T17:47:13.214Z,2.87
2019-03-06T17:49:42.982Z,2.80
2019-03-06T17:52:12.793Z,3.13
2019-03-06T17:54:42.512Z,3.20
2019-03-06T17:57:12.697Z,3.10
2019-03-06T17:59:43.297Z,2.93
2019-03-06T18:02:13.472Z,2.60
2019-03-06T18:04:43.284Z,2.80
2019-03-06T18:07:13.445Z,2.60
2019-03-06T18:09:43.478Z,2.80
2019-03-06T18:12:13.260Z,3.27
2019-03-06T18:14:42.952Z,3.00
2019-03-06T18:17:12.937Z,3.63
2019-03-06T18:19:42.721Z,3.47
2019-03-06T18:22:12.585Z,3.03
2019-03-06T18:24:42.798Z,3.63
2019-03-06T18:27:12.681Z,3.60
2019-03-06T18:29:42.483Z,3.73
2019-03-06T18:32:12.348Z,3.50
2019-03-06T18:34:42.128Z,3.40
2019-03-06T18:37:12.050Z,3.43
2019-03-06T18:39:41.829Z,3.40
2019-03-06T18:42:11.686Z,3.00
2019-03-06T18:44:41.467Z,3.30
2019-03-06T18:47:11.281Z,3.30
2019-03-06T18:49:41.172Z,3.00
2019-03-06T18:52:10.906Z,3.13
2019-03-06T18:54:40.766Z,2.93
2019-03-06T18:57:10.672Z,3.33
2019-03-06T18:59:40.463Z,2.60
2019-03-06T19:02:10.354Z,2.97
2019-03-06T19:04:40.183Z,2.73
2019-03-06T19:07:10.090Z,3.00
2019-03-06T19:09:40.006Z,3.30
2019-03-06T19:12:09.902Z,2.80
2019-03-06T19:14:39.663Z,3.03
2019-03-06T19:17:09.509Z,3.53
2019-03-06T19:19:39.615Z,3.27
2019-03-06T19:22:09.441Z,2.83
2019-03-06T19:24:39.349Z,2.83
2019-03-06T19:27:09.180Z,2.73
2019-03-06T19:29:39.114Z,3.10
2019-03-06T19:32:08.961Z,2.90
2019-03-06T19:34:38.694Z,2.93
2019-03-06T19:37:08.564Z,2.80
2019-03-06T19:39:38.213Z,3.30
2019-03-06T19:42:08.026Z,2.97
2019-03-06T19:44:37.858Z,3.07
2019-03-06T19:47:07.775Z,3.33
2019-03-06T19:49:37.950Z,2.63
2019-03-06T19:52:07.893Z,2.70
2019-03-06T19:54:37.755Z,2.80
2019-03-06T19:57:07.823Z,2.90
2019-03-06T19:59:37.633Z,2.83
2019-03-06T20:02:08.126Z,2.50
2019-03-06T20:04:38.284Z,3.03
2019-03-06T20:07:08.260Z,2.93
2019-03-06T20:09:38.358Z,3.37
2019-03-06T20:12:08.721Z,2.80
2019-03-06T20:14:38.604Z,3.60
2019-03-06T20:17:08.443Z,3.07
2019-03-06T20:19:38.433Z,3.40
2019-03-06T20:22:08.296Z,3.40
2019-03-06T20:24:38.064Z,3.67
2019-03-06T20:27:08.032Z,3.53
2019-03-06T20:29:37.863Z,3.23
2019-03-06T20:32:07.933Z,3.40
2019-03-06T20:34:37.799Z,3.17
2019-03-06T20:37:08.028Z,3.50
2019-03-06T20:39:38.142Z,3.43
2019-03-06T20:42:08.105Z,3.57
2019-03-06T20:44:37.833Z,3.67
2019-03-06T20:47:07.800Z,3.73
2019-03-06T20:49:37.484Z,3.53
2019-03-06T20:52:07.318Z,3.60
2019-03-06T20:54:37.067Z,3.10
2019-03-06T20:57:07.028Z,3.47
2019-03-06T20:59:36.690Z,3.53
2019-03-06T21:02:06.632Z,3.60
2019-03-06T21:04:36.492Z,3.70
2019-03-06T21:07:06.264Z,3.47
2019-03-06T21:09:36.071Z,3.57
2019-03-06T21:12:05.897Z,3.53
2019-03-06T21:14:35.823Z,4.43
2019-03-06T21:17:07.087Z,3.80
2019-03-06T21:19:36.887Z,4.07
2019-03-06T21:22:07.071Z,3.73
2019-03-06T21:24:36.960Z,3.87
2019-03-06T21:27:06.857Z,3.50
2019-03-06T21:29:36.663Z,3.73
2019-03-06T21:32:06.592Z,4.27
2019-03-06T21:34:36.526Z,4.20
2019-03-06T21:37:06.585Z,3.97
2019-03-06T21:39:36.323Z,4.23
2019-03-06T21:42:06.170Z,3.90
2019-03-06T21:44:36.132Z,4.63
2019-03-06T21:47:06.031Z,3.37
2019-03-06T21:49:35.930Z,3.97
2019-03-06T21:52:05.900Z,3.37
2019-03-06T21:54:35.743Z,3.90
2019-03-06T21:57:05.757Z,3.70
2019-03-06T21:59:35.659Z,4.00
2019-03-06T22:02:05.524Z,3.63
2019-03-06T22:04:35.386Z,3.20
2019-03-06T22:07:05.684Z,3.83
2019-03-06T22:09:36.218Z,3.47
2019-03-06T22:12:06.180Z,3.40
2019-03-06T22:14:35.866Z,2.90
2019-03-06T22:17:05.824Z,3.90
2019-03-06T22:19:35.648Z,3.60
2019-03-06T22:22:05.583Z,3.70
2019-03-06T22:24:35.373Z,3.83
2019-03-06T22:27:05.305Z,3.90
2019-03-06T22:29:35.345Z,3.87
2019-03-06T22:32:05.201Z,3.67
2019-03-06T22:34:34.979Z,4.30
2019-03-06T22:37:04.743Z,4.07
2019-03-06T22:39:34.454Z,3.90
2019-03-06T22:42:04.283Z,3.97
2019-03-06T22:44:34.176Z,4.00
2019-03-06T22:47:03.999Z,3.90
2019-03-06T22:49:33.689Z,4.20
2019-03-06T22:52:03.411Z,4.50
2019-03-06T22:54:33.271Z,3.77
2019-03-06T22:57:03.084Z,3.60
2019-03-06T22:59:32.837Z,4.10
2019-03-06T23:02:02.804Z,4.00
2019-03-06T23:04:32.662Z,4.17
2019-03-06T23:07:02.566Z,4.00
2019-03-06T23:09:32.430Z,3.87
2019-03-06T23:12:02.165Z,4.00
2019-03-06T23:14:32.308Z,4.10
2019-03-06T23:17:02.131Z,3.97
2019-03-06T23:19:31.947Z,4.10
2019-03-06T23:22:01.748Z,3.80
2019-03-06T23:24:31.533Z,3.50
2019-03-06T23:27:01.375Z,3.47
2019-03-06T23:29:31.123Z,4.00
2019-03-06T23:32:00.840Z,3.40
2019-03-06T23:34:30.543Z,3.70
2019-03-06T23:37:00.253Z,3.83
2019-03-06T23:39:30.012Z,3.53
2019-03-06T23:42:00.017Z,4.07
2019-03-06T23:44:29.756Z,3.93
2019-03-06T23:46:59.443Z,3.63
2019-03-06T23:49:29.169Z,3.70
2019-03-06T23:52:00.188Z,4.17
2019-03-06T23:54:30.201Z,4.07
2019-03-06T23:57:00.085Z,4.10
2019-03-06T23:59:29.927Z,4.17
